Time;durP1;ratioP1;P1;durP2;ratioP2;P2;SDS_P1;SDS_P2;PMS_P1;PMS_P2;Temp;Humidity;BMP_temperature;BMP_pressure;BME280_temperature;BME280_humidity;BME280_pressure;Samples;Min_cycle;Max_cycle;Signal;HPM_P1;HPM_P2
2020/12/22 00:01:35;;;;;;;6.77;5.37;;;12.90;99.90;;;;;;5015574;28;20562;-76
2020/12/22 00:04:02;;;;;;;6.07;4.90;;;12.80;99.90;;;;;;4990149;28;20214;-76
2020/12/22 00:06:28;;;;;;;5.50;4.23;;;12.80;99.90;;;;;;5018613;28;20616;-76
2020/12/22 00:08:54;;;;;;;4.33;3.50;;;12.80;99.90;;;;;;5016420;28;20265;-76
2020/12/22 00:11:21;;;;;;;4.17;3.43;;;12.80;99.90;;;;;;5002130;28;20278;-76
2020/12/22 00:13:47;;;;;;;4.33;3.60;;;12.80;99.90;;;;;;5013025;28;20226;-77
2020/12/22 00:16:14;;;;;;;4.77;3.50;;;12.80;99.90;;;;;;5020154;28;20806;-77
2020/12/22 00:18:40;;;;;;;3.90;3.50;;;12.80;99.90;;;;;;4999810;28;20311;-76
2020/12/22 00:21:07;;;;;;;2.97;2.60;;;12.90;99.90;;;;;;5014360;28;20236;-77
2020/12/22 00:23:33;;;;;;;3.47;2.83;;;12.90;99.90;;;;;;5017158;28;20642;-76
2020/12/22 00:25:59;;;;;;;4.00;2.57;;;12.90;99.90;;;;;;4999253;28;20219;-76
2020/12/22 00:28:26;;;;;;;2.83;1.93;;;12.90;99.90;;;;;;5017519;28;20939;-76
2020/12/22 00:30:52;;;;;;;2.37;1.87;;;13.00;99.90;;;;;;5000280;28;20289;-77
2020/12/22 00:33:19;;;;;;;2.53;2.33;;;13.00;99.90;;;;;;5017625;28;20227;-76
2020/12/22 00:35:46;;;;;;;2.70;1.90;;;13.00;99.90;;;;;;5000066;28;20787;-76
2020/12/22 00:38:12;;;;;;;2.43;1.93;;;13.10;99.90;;;;;;5001532;28;20226;-76
2020/12/22 00:40:38;;;;;;;2.73;2.10;;;13.00;99.90;;;;;;5014761;28;20279;-76
2020/12/22 00:43:05;;;;;;;2.40;2.20;;;13.00;99.90;;;;;;5017608;28;20290;-76
2020/12/22 00:45:32;;;;;;;2.27;1.80;;;13.10;99.90;;;;;;5016810;28;20221;-76
2020/12/22 00:47:58;;;;;;;2.73;1.87;;;13.10;99.90;;;;;;5022811;28;20233;-76
2020/12/22 00:50:25;;;;;;;2.20;1.90;;;13.10;99.90;;;;;;5026732;28;20280;-76
2020/12/22 00:52:51;;;;;;;2.10;1.83;;;13.10;99.90;;;;;;5017052;28;20705;-76
2020/12/22 00:55:18;;;;;;;2.00;1.47;;;13.20;99.90;;;;;;5018405;28;20289;-76
2020/12/22 00:57:44;;;;;;;3.93;1.87;;;13.10;99.90;;;;;;5005396;28;20567;-76
2020/12/22 01:00:12;;;;;;;1.80;1.40;;;13.10;99.90;;;;;;5017919;28;20282;-76
2020/12/22 01:02:39;;;;;;;1.73;1.63;;;13.10;99.90;;;;;;5020192;28;20450;-76
2020/12/22 01:05:06;;;;;;;1.50;1.10;;;13.10;99.90;;;;;;5021616;28;20615;-76
2020/12/22 01:07:33;;;;;;;1.40;1.13;;;13.10;99.90;;;;;;5024720;28;20569;-76
2020/12/22 01:09:59;;;;;;;1.27;1.17;;;13.10;99.90;;;;;;5023483;28;20200;-76
2020/12/22 01:12:26;;;;;;;0.93;0.90;;;13.10;99.90;;;;;;5001255;28;20330;-76
2020/12/22 01:14:52;;;;;;;1.30;1.20;;;13.10;99.90;;;;;;5031192;28;20246;-77
2020/12/22 01:17:19;;;;;;;1.33;0.90;;;13.10;99.90;;;;;;5007031;28;20215;-77
2020/12/22 01:19:46;;;;;;;1.00;0.90;;;13.10;99.90;;;;;;5023141;28;20338;-76
2020/12/22 01:22:12;;;;;;;1.87;1.20;;;13.10;99.90;;;;;;5020041;28;20231;-76
2020/12/22 01:24:39;;;;;;;1.37;1.27;;;13.10;99.90;;;;;;5033752;28;20306;-77
2020/12/22 01:27:05;;;;;;;1.10;0.93;;;13.10;99.90;;;;;;5010770;28;20212;-77
2020/12/22 01:29:32;;;;;;;1.10;1.00;;;13.10;99.90;;;;;;5011202;28;20584;-77
2020/12/22 01:31:58;;;;;;;1.03;0.80;;;13.10;99.90;;;;;;5032261;28;20197;-76
2020/12/22 01:34:25;;;;;;;0.77;0.77;;;13.10;99.90;;;;;;5020248;28;20682;-77
2020/12/22 01:36:51;;;;;;;1.40;1.00;;;13.10;99.90;;;;;;5023362;28;20254;-76
2020/12/22 01:39:18;;;;;;;2.13;1.03;;;13.10;99.90;;;;;;5022369;28;20209;-76
2020/12/22 01:41:44;;;;;;;1.50;1.07;;;13.10;99.90;;;;;;5022359;28;20204;-77
2020/12/22 01:44:14;;;;;;;1.33;1.23;;;13.10;99.90;;;;;;5006892;28;20551;-76
2020/12/22 01:46:50;;;;;;;1.40;1.23;;;13.20;99.90;;;;;;5022930;28;20242;-76
2020/12/22 01:49:23;;;;;;;1.03;0.93;;;13.10;99.90;;;;;;5022925;28;20200;-76
2020/12/22 01:51:51;;;;;;;1.10;1.00;;;13.10;99.90;;;;;;5013133;28;20300;-77
2020/12/22 01:54:17;;;;;;;1.50;1.40;;;13.10;99.90;;;;;;5019554;28;20648;-77
2020/12/22 01:56:45;;;;;;;1.60;1.30;;;13.20;99.90;;;;;;5019396;28;20239;-77
2020/12/22 01:59:12;;;;;;;1.67;1.47;;;13.20;99.90;;;;;;5010643;28;20204;-77
2020/12/22 02:01:39;;;;;;;1.57;1.47;;;13.20;99.90;;;;;;5027186;28;20259;-76
2020/12/22 02:04:09;;;;;;;1.53;1.30;;;13.20;99.90;;;;;;5021191;28;20315;-76
2020/12/22 02:06:36;;;;;;;1.00;0.90;;;13.20;99.90;;;;;;5021509;28;20355;-76
2020/12/22 02:09:11;;;;;;;1.47;1.10;;;13.10;99.90;;;;;;5020142;28;21476;-76
2020/12/22 02:11:39;;;;;;;1.03;0.93;;;13.10;99.90;;;;;;5017483;28;20291;-76
2020/12/22 02:14:08;;;;;;;1.07;0.83;;;13.10;99.90;;;;;;5026294;28;20265;-76
2020/12/22 02:16:35;;;;;;;1.23;0.90;;;13.10;99.90;;;;;;5027892;28;20208;-76
2020/12/22 02:19:13;;;;;;;1.10;0.93;;;13.10;99.90;;;;;;5025464;28;20332;-75
2020/12/22 02:21:40;;;;;;;1.00;0.90;;;13.20;99.90;;;;;;5039211;28;20292;-76
2020/12/22 02:24:06;;;;;;;0.80;0.80;;;13.20;99.90;;;;;;5009446;28;20204;-76
2020/12/22 02:26:33;;;;;;;0.70;0.70;;;13.20;99.90;;;;;;5033803;28;20305;-76
2020/12/22 02:28:59;;;;;;;0.87;0.80;;;13.20;99.90;;;;;;5007840;28;20197;-76
2020/12/22 02:31:26;;;;;;;1.27;0.83;;;13.20;99.90;;;;;;5007495;28;20193;-76
2020/12/22 02:33:56;;;;;;;3.10;0.90;;;13.20;99.90;;;;;;5021736;28;20290;-75
2020/12/22 02:36:22;;;;;;;1.10;1.00;;;13.20;99.90;;;;;;5041120;28;20260;-75
2020/12/22 02:38:48;;;;;;;0.73;0.73;;;13.20;99.90;;;;;;5026731;28;20539;-74
2020/12/22 02:41:15;;;;;;;1.23;1.10;;;13.30;99.90;;;;;;5022497;28;20235;-74
2020/12/22 02:43:42;;;;;;;1.20;1.10;;;13.20;99.90;;;;;;5045610;28;20300;-75
2020/12/22 02:46:08;;;;;;;1.23;1.07;;;13.30;99.90;;;;;;5023451;28;20231;-74
2020/12/22 02:48:35;;;;;;;1.53;1.43;;;13.30;99.90;;;;;;5011387;28;20217;-74
2020/12/22 02:51:01;;;;;;;1.40;1.30;;;13.20;99.90;;;;;;5020282;28;20206;-75
2020/12/22 02:53:29;;;;;;;1.80;1.53;;;13.30;99.90;;;;;;5019915;28;20193;-75
2020/12/22 02:55:55;;;;;;;1.83;1.70;;;13.30;99.90;;;;;;5018580;28;20224;-75
2020/12/22 02:58:22;;;;;;;2.73;1.57;;;13.30;99.90;;;;;;5019448;28;20626;-75
2020/12/22 03:00:48;;;;;;;1.73;1.50;;;13.30;99.90;;;;;;5009710;28;20236;-77
2020/12/22 03:03:15;;;;;;;1.50;1.40;;;13.20;99.90;;;;;;5025328;28;20663;-76
2020/12/22 03:05:42;;;;;;;2.47;1.70;;;13.30;99.90;;;;;;5021701;28;20715;-76
2020/12/22 03:08:09;;;;;;;2.03;1.83;;;13.20;99.90;;;;;;5008062;28;20553;-76
2020/12/22 03:10:35;;;;;;;1.80;1.70;;;13.20;99.90;;;;;;5004007;28;20323;-76
2020/12/22 03:13:02;;;;;;;2.23;2.03;;;13.30;99.90;;;;;;5018888;28;20371;-75
2020/12/22 03:15:29;;;;;;;2.27;1.80;;;13.20;99.90;;;;;;5022517;28;20210;-75
2020/12/22 03:17:56;;;;;;;2.23;2.03;;;13.20;99.90;;;;;;5023041;28;20391;-75
2020/12/22 03:20:24;;;;;;;3.97;2.13;;;13.20;99.90;;;;;;5028820;28;20206;-75
2020/12/22 03:22:51;;;;;;;2.57;2.37;;;13.20;99.90;;;;;;5021550;28;20211;-75
2020/12/22 03:25:18;;;;;;;2.33;2.13;;;13.20;99.90;;;;;;5028330;28;20243;-75
2020/12/22 03:27:44;;;;;;;2.90;2.43;;;13.20;99.90;;;;;;5008800;28;20291;-75
2020/12/22 03:30:13;;;;;;;4.53;2.27;;;13.20;99.90;;;;;;5025912;28;20258;-76
2020/12/22 03:32:39;;;;;;;2.60;2.40;;;13.20;99.90;;;;;;5021028;28;20270;-76
2020/12/22 03:35:08;;;;;;;2.27;2.07;;;13.20;99.90;;;;;;5025671;28;20211;-76
2020/12/22 03:37:35;;;;;;;3.53;2.13;;;13.20;99.90;;;;;;5046689;28;20205;-76
2020/12/22 03:40:04;;;;;;;2.60;2.37;;;13.20;99.90;;;;;;5003999;28;20288;-76
2020/12/22 03:42:31;;;;;;;2.17;1.97;;;13.20;99.90;;;;;;5024883;28;20199;-75
2020/12/22 03:44:58;;;;;;;3.03;2.73;;;13.20;99.90;;;;;;5021836;28;20287;-76
2020/12/22 03:47:24;;;;;;;2.73;2.47;;;13.20;99.90;;;;;;5022729;28;20274;-76
2020/12/22 03:49:51;;;;;;;3.20;2.60;;;13.20;99.90;;;;;;5016756;28;20564;-75
2020/12/22 03:52:17;;;;;;;3.03;2.73;;;13.20;99.90;;;;;;5007774;28;20204;-75
2020/12/22 03:54:43;;;;;;;2.67;2.47;;;13.10;99.90;;;;;;5019120;28;20233;-75
2020/12/22 03:57:10;;;;;;;2.93;2.73;;;13.10;99.90;;;;;;5022441;28;20207;-75
2020/12/22 03:59:36;;;;;;;3.10;2.80;;;13.10;99.90;;;;;;5019128;28;20236;-75
2020/12/22 04:02:04;;;;;;;2.40;2.20;;;13.10;99.90;;;;;;5016232;28;20204;-76
2020/12/22 04:04:31;;;;;;;3.50;2.97;;;13.10;99.90;;;;;;5030425;28;20335;-75
2020/12/22 04:06:57;;;;;;;3.00;2.50;;;13.20;99.90;;;;;;5003751;28;20259;-76
2020/12/22 04:09:24;;;;;;;2.57;2.37;;;13.10;99.90;;;;;;5008134;28;20625;-76
2020/12/22 04:11:51;;;;;;;3.00;2.70;;;13.10;99.90;;;;;;5019540;28;20220;-76
2020/12/22 04:14:22;;;;;;;3.37;2.70;;;13.20;99.90;;;;;;5018299;28;20198;-75
2020/12/22 04:16:48;;;;;;;4.27;3.30;;;13.10;99.90;;;;;;5017847;28;20638;-76
2020/12/22 04:19:16;;;;;;;2.43;2.23;;;13.10;99.90;;;;;;5033291;28;20705;-76
2020/12/22 04:21:43;;;;;;;3.40;2.50;;;13.10;99.90;;;;;;5006294;28;20262;-76
2020/12/22 04:24:10;;;;;;;2.80;2.50;;;13.20;99.90;;;;;;5016352;28;20204;-76
2020/12/22 04:26:36;;;;;;;3.20;2.50;;;13.10;99.90;;;;;;5007571;28;20309;-76
2020/12/22 04:29:03;;;;;;;3.03;2.40;;;13.20;99.90;;;;;;5016391;28;20767;-76
2020/12/22 04:31:30;;;;;;;2.60;2.40;;;13.20;99.90;;;;;;5009359;28;20267;-76
2020/12/22 04:33:57;;;;;;;5.13;2.90;;;13.20;99.90;;;;;;5017961;28;20207;-76
2020/12/22 04:36:24;;;;;;;3.00;2.37;;;13.20;99.90;;;;;;5016770;28;20231;-76
2020/12/22 04:38:53;;;;;;;4.20;2.73;;;13.20;99.90;;;;;;5021819;28;20245;-75
2020/12/22 04:41:22;;;;;;;3.80;2.97;;;13.20;99.90;;;;;;5016020;28;20554;-76
2020/12/22 04:43:50;;;;;;;3.30;3.00;;;13.20;99.90;;;;;;5020499;28;20267;-76
2020/12/22 04:46:20;;;;;;;3.57;3.07;;;13.20;99.90;;;;;;5022506;28;20347;-75
2020/12/22 04:48:54;;;;;;;3.57;3.00;;;13.20;99.90;;;;;;5021162;28;20192;-75
2020/12/22 04:51:22;;;;;;;2.60;2.37;;;13.20;99.90;;;;;;5023859;28;20230;-76
2020/12/22 04:54:02;;;;;;;5.30;2.80;;;13.30;99.90;;;;;;5033086;28;20207;-75
2020/12/22 04:56:30;;;;;;;2.90;2.57;;;13.30;99.90;;;;;;5022598;28;20264;-76
2020/12/22 04:58:56;;;;;;;2.70;2.27;;;13.40;99.90;;;;;;5015265;28;20633;-76
2020/12/22 05:01:23;;;;;;;3.23;2.50;;;13.30;99.90;;;;;;5026606;28;20286;-75
2020/12/22 05:03:50;;;;;;;3.43;2.40;;;13.30;99.90;;;;;;5012509;28;20883;-75
2020/12/22 05:06:17;;;;;;;2.40;2.10;;;13.30;99.90;;;;;;5022954;28;20700;-75
2020/12/22 05:08:43;;;;;;;2.63;2.20;;;13.30;99.90;;;;;;5020261;28;20601;-74
2020/12/22 05:11:16;;;;;;;2.10;1.90;;;13.30;99.90;;;;;;5012607;28;20196;-75
2020/12/22 05:13:46;;;;;;;2.40;2.20;;;13.30;99.90;;;;;;5027592;28;20206;-76
2020/12/22 05:16:12;;;;;;;1.93;1.70;;;13.20;99.90;;;;;;5027803;28;20224;-76
2020/12/22 05:18:38;;;;;;;1.90;1.70;;;13.20;99.90;;;;;;5006105;28;20241;-76
2020/12/22 05:21:22;;;;;;;2.30;2.10;;;13.20;99.90;;;;;;5049735;28;20382;-76
2020/12/22 05:23:50;;;;;;;1.77;1.63;;;13.20;99.90;;;;;;5020397;28;20289;-75
2020/12/22 05:26:19;;;;;;;1.53;1.40;;;13.10;99.90;;;;;;5025952;28;20234;-75
2020/12/22 05:28:46;;;;;;;1.20;1.10;;;13.20;99.90;;;;;;5030900;28;20607;-75
2020/12/22 05:31:14;;;;;;;1.40;1.17;;;13.10;99.90;;;;;;5024070;28;20211;-75
2020/12/22 05:33:44;;;;;;;2.03;1.30;;;13.10;99.90;;;;;;5019353;28;20204;-75
2020/12/22 05:36:11;;;;;;;1.47;1.30;;;13.10;99.90;;;;;;5028523;28;20323;-75
2020/12/22 05:38:38;;;;;;;3.10;1.20;;;13.10;99.90;;;;;;5006392;28;20683;-75
2020/12/22 05:41:06;;;;;;;1.60;1.37;;;13.10;99.90;;;;;;5040035;28;20624;-75
2020/12/22 05:43:40;;;;;;;2.70;1.80;;;13.10;99.90;;;;;;5032989;28;21133;-76
2020/12/22 05:46:08;;;;;;;2.90;1.20;;;13.10;99.90;;;;;;5026303;28;20718;-76
2020/12/22 05:48:35;;;;;;;2.27;1.40;;;13.10;99.90;;;;;;5025586;28;20668;-75
2020/12/22 05:51:07;;;;;;;1.40;1.03;;;13.10;99.90;;;;;;5006422;28;20209;-75
2020/12/22 05:53:42;;;;;;;1.37;1.03;;;13.10;99.90;;;;;;5025178;28;20540;-76
2020/12/22 05:56:19;;;;;;;3.27;1.60;;;13.20;99.90;;;;;;5022655;28;20200;-75
2020/12/22 05:58:45;;;;;;;1.77;1.40;;;13.10;99.90;;;;;;5024680;28;20635;-76
2020/12/22 06:01:12;;;;;;;2.10;1.13;;;13.10;99.90;;;;;;5039939;28;20473;-75
2020/12/22 06:03:42;;;;;;;2.80;1.47;;;13.10;99.90;;;;;;5024709;28;20205;-75
2020/12/22 06:06:08;;;;;;;1.77;1.47;;;13.00;99.90;;;;;;5026144;28;20239;-75
2020/12/22 06:08:36;;;;;;;4.70;2.03;;;13.00;99.90;;;;;;5018887;28;20404;-75
2020/12/22 06:11:03;;;;;;;3.37;2.00;;;13.00;99.90;;;;;;5052359;28;20205;-76
2020/12/22 06:13:30;;;;;;;1.90;1.60;;;13.00;99.90;;;;;;5027690;28;20204;-75
2020/12/22 06:15:56;;;;;;;2.30;1.93;;;13.00;99.90;;;;;;5021253;28;20197;-75
2020/12/22 06:18:23;;;;;;;2.43;2.23;;;13.10;99.90;;;;;;5022955;28;20237;-76
2020/12/22 06:20:49;;;;;;;2.53;2.23;;;13.00;99.90;;;;;;5012970;28;20307;-77
2020/12/22 06:23:19;;;;;;;4.07;2.80;;;13.10;99.90;;;;;;5021568;28;20211;-77
2020/12/22 06:25:46;;;;;;;5.97;3.50;;;13.00;99.90;;;;;;5021980;28;20209;-80
2020/12/22 06:28:31;;;;;;;3.30;2.93;;;13.10;99.90;;;;;;5008758;28;20201;-77
2020/12/22 06:30:58;;;;;;;3.97;2.70;;;13.10;99.90;;;;;;5025513;28;20197;-80
2020/12/22 06:33:35;;;;;;;4.03;2.70;;;13.20;99.90;;;;;;5031298;28;20234;-81
2020/12/22 06:36:13;;;;;;;4.87;3.03;;;13.20;99.90;;;;;;5041983;28;20204;-78
2020/12/22 06:39:01;;;;;;;4.50;2.30;;;13.20;99.90;;;;;;5044298;28;20301;-79
2020/12/22 06:41:34;;;;;;;3.13;2.43;;;13.10;99.90;;;;;;5028753;28;20208;-81
2020/12/22 06:44:21;;;;;;;4.10;2.97;;;13.10;99.90;;;;;;5028512;28;20264;-80
2020/12/22 06:46:53;;;;;;;4.00;2.20;;;13.10;99.90;;;;;;5029649;28;20212;-80
2020/12/22 06:49:45;;;;;;;3.00;2.20;;;13.00;99.90;;;;;;5030115;28;20219;-77
2020/12/22 06:52:43;;;;;;;5.30;2.37;;;13.00;99.90;;;;;;5025336;28;20640;-80
2020/12/22 06:55:52;;;;;;;2.33;1.93;;;13.00;99.90;;;;;;5023453;28;20235;-80
2020/12/22 06:58:41;;;;;;;4.60;2.57;;;12.90;99.90;;;;;;5025198;28;20219;-80
2020/12/22 07:01:26;;;;;;;4.40;2.80;;;13.00;99.90;;;;;;5039032;28;20282;-80
2020/12/22 07:03:54;;;;;;;5.23;3.30;;;12.90;99.90;;;;;;5023589;28;20563;-80
2020/12/22 07:06:52;;;;;;;6.13;3.20;;;12.90;99.90;;;;;;5032093;28;20228;-80
2020/12/22 07:09:26;;;;;;;8.07;3.87;;;12.90;99.90;;;;;;5018855;28;20259;-80
2020/12/22 07:12:08;;;;;;;5.43;3.50;;;12.90;99.90;;;;;;5029180;28;20200;-79
2020/12/22 07:14:41;;;;;;;4.90;3.30;;;12.90;99.90;;;;;;5023575;28;20652;-80
2020/12/22 07:17:12;;;;;;;5.97;3.50;;;12.80;99.90;;;;;;5019851;28;20200;-80
2020/12/22 07:19:42;;;;;;;3.87;3.13;;;12.80;99.90;;;;;;5024607;28;20317;-78
2020/12/22 07:22:08;;;;;;;7.10;3.70;;;12.80;99.90;;;;;;5018102;28;20204;-78
2020/12/22 07:24:39;;;;;;;5.47;3.17;;;12.70;99.90;;;;;;5038801;28;20547;-78
2020/12/22 07:27:07;;;;;;;8.07;3.60;;;12.70;99.90;;;;;;5010453;28;20245;-79
2020/12/22 07:29:37;;;;;;;7.77;3.53;;;12.80;99.90;;;;;;5027819;28;20234;-80
2020/12/22 07:32:04;;;;;;;7.13;2.73;;;12.70;99.90;;;;;;5022195;28;20241;-78
2020/12/22 07:34:39;;;;;;;5.23;2.33;;;12.60;99.90;;;;;;5026386;28;20338;-79
2020/12/22 07:37:08;;;;;;;6.93;1.83;;;12.60;99.90;;;;;;5028130;28;20680;-79
2020/12/22 07:39:36;;;;;;;5.60;1.80;;;12.60;99.90;;;;;;5027338;28;20208;-79
2020/12/22 07:42:15;;;;;;;5.03;1.70;;;12.70;99.90;;;;;;5007273;28;20212;-78
2020/12/22 07:44:43;;;;;;;4.03;1.50;;;12.60;99.90;;;;;;5024308;28;20534;-79
2020/12/22 07:47:11;;;;;;;7.47;1.83;;;12.60;99.90;;;;;;5010019;28;20231;-78
2020/12/22 07:49:39;;;;;;;5.50;1.50;;;12.60;99.90;;;;;;5016220;28;20270;-79
2020/12/22 07:52:16;;;;;;;5.13;1.37;;;12.60;99.90;;;;;;5023613;28;20225;-79
2020/12/22 07:54:44;;;;;;;3.63;1.40;;;12.60;99.90;;;;;;5026404;28;20568;-79
2020/12/22 07:57:10;;;;;;;6.13;1.30;;;12.60;99.90;;;;;;5013649;28;20238;-79
2020/12/22 07:59:36;;;;;;;2.03;1.13;;;12.60;99.90;;;;;;5028425;28;20250;-79
2020/12/22 08:02:03;;;;;;;3.37;1.07;;;12.60;99.90;;;;;;5024331;28;20320;-79
2020/12/22 08:04:29;;;;;;;3.03;0.70;;;12.70;99.90;;;;;;5036699;28;20201;-79
2020/12/22 08:06:56;;;;;;;5.70;1.37;;;12.60;99.90;;;;;;5039038;28;20225;-78
2020/12/22 08:09:42;;;;;;;3.63;1.30;;;12.60;99.90;;;;;;5027962;28;20862;-79
2020/12/22 08:12:10;;;;;;;3.73;1.67;;;12.70;99.90;;;;;;5058983;28;20216;-78
2020/12/22 08:14:39;;;;;;;3.97;1.67;;;12.60;99.90;;;;;;5036991;28;20342;-78
2020/12/22 08:17:16;;;;;;;3.87;1.53;;;12.70;99.90;;;;;;5024854;28;20571;-79
2020/12/22 08:19:44;;;;;;;6.97;1.60;;;12.60;99.90;;;;;;5019901;28;20244;-79
2020/12/22 08:22:15;;;;;;;4.53;1.50;;;12.60;99.90;;;;;;5039758;28;20677;-80
2020/12/22 08:24:43;;;;;;;2.53;1.30;;;12.60;99.90;;;;;;5001869;28;20212;-79
2020/12/22 08:27:11;;;;;;;2.77;1.20;;;12.60;99.90;;;;;;5017861;28;20291;-79
2020/12/22 08:29:39;;;;;;;3.70;1.50;;;12.60;99.90;;;;;;5029655;28;20200;-79
2020/12/22 08:32:06;;;;;;;5.53;2.03;;;12.70;99.90;;;;;;5007079;28;20193;-78
2020/12/22 08:34:32;;;;;;;3.60;1.80;;;12.60;99.90;;;;;;5012435;28;20214;-79
2020/12/22 08:37:09;;;;;;;3.43;1.90;;;12.60;99.90;;;;;;5011820;28;20563;-78
2020/12/22 08:39:39;;;;;;;4.00;1.67;;;12.60;99.90;;;;;;5013716;28;20233;-79
2020/12/22 08:45:49;;;;;;;7.30;3.10;;;12.50;99.90;;;;;;5029445;28;20234;-79
2020/12/22 08:48:15;;;;;;;3.93;2.13;;;12.50;99.90;;;;;;5012145;28;20207;-78
2020/12/22 08:50:50;;;;;;;6.70;2.33;;;12.50;99.90;;;;;;5024935;28;20265;-77
2020/12/22 08:53:34;;;;;;;4.10;1.73;;;12.50;99.90;;;;;;5014955;28;20379;-78
2020/12/22 08:56:11;;;;;;;3.53;1.97;;;12.50;99.90;;;;;;5009675;28;20206;-79
2020/12/22 08:58:54;;;;;;;3.63;1.70;;;12.50;99.90;;;;;;5004852;28;20278;-78
2020/12/22 09:01:37;;;;;;;8.00;1.67;;;12.50;99.90;;;;;;5039178;28;20189;-79
2020/12/22 09:04:03;;;;;;;2.70;1.40;;;12.50;99.90;;;;;;5028791;28;20200;-79
2020/12/22 09:06:34;;;;;;;8.70;1.83;;;12.60;99.90;;;;;;5007632;28;20286;-79
2020/12/22 09:09:11;;;;;;;5.20;1.93;;;12.60;99.90;;;;;;5021723;28;20554;-79
2020/12/22 09:11:39;;;;;;;2.57;1.37;;;12.70;99.90;;;;;;5026160;28;20215;-79
2020/12/22 09:14:08;;;;;;;6.20;1.23;;;12.70;99.90;;;;;;4997663;28;20225;-79
2020/12/22 09:16:49;;;;;;;3.07;1.30;;;12.70;99.90;;;;;;5023787;28;20290;-78
2020/12/22 09:19:43;;;;;;;2.80;1.30;;;12.70;99.90;;;;;;5028870;28;20244;-79
2020/12/22 09:22:11;;;;;;;4.77;1.27;;;12.70;99.90;;;;;;5021984;28;20205;-79
2020/12/22 09:24:38;;;;;;;3.07;1.30;;;12.80;99.90;;;;;;5027277;28;20211;-78
2020/12/22 09:27:12;;;;;;;3.70;1.30;;;12.70;99.90;;;;;;5021298;28;20655;-79
2020/12/22 09:29:42;;;;;;;6.27;1.20;;;12.70;99.90;;;;;;5023693;28;20271;-79
2020/12/22 09:32:10;;;;;;;5.90;1.23;;;12.80;99.90;;;;;;5023298;28;20201;-79
2020/12/22 09:34:38;;;;;;;6.57;0.90;;;12.80;99.90;;;;;;5032009;28;20211;-80
2020/12/22 09:37:07;;;;;;;4.37;0.87;;;12.70;99.90;;;;;;5022231;28;20204;-79
2020/12/22 09:39:35;;;;;;;5.37;1.27;;;12.60;99.90;;;;;;5015827;28;20299;-80
2020/12/22 09:42:03;;;;;;;3.50;0.60;;;12.60;99.90;;;;;;5033196;28;20202;-78
2020/12/22 09:44:29;;;;;;;5.27;1.20;;;12.60;99.90;;;;;;5022708;28;20621;-79
2020/12/22 09:46:56;;;;;;;3.07;0.70;;;12.50;99.90;;;;;;5026956;28;20220;-80
2020/12/22 09:49:24;;;;;;;3.60;1.07;;;12.50;99.90;;;;;;5015196;28;20311;-81
2020/12/22 09:51:51;;;;;;;1.40;1.10;;;12.50;99.90;;;;;;5029892;28;20274;-79
2020/12/22 09:54:19;;;;;;;3.97;1.23;;;12.50;99.90;;;;;;5012010;28;20258;-78
2020/12/22 09:56:46;;;;;;;3.60;1.00;;;12.50;99.90;;;;;;5046276;28;20318;-80
2020/12/22 09:59:13;;;;;;;3.50;0.83;;;12.50;99.90;;;;;;5020381;28;20208;-77
2020/12/22 10:01:40;;;;;;;3.53;1.00;;;12.60;99.90;;;;;;5014070;28;20220;-76
2020/12/22 10:04:07;;;;;;;2.73;1.00;;;12.60;99.90;;;;;;5025359;28;20291;-76
2020/12/22 10:06:34;;;;;;;2.97;1.03;;;12.60;99.90;;;;;;5028859;28;20319;-76
2020/12/22 10:09:00;;;;;;;7.27;2.03;;;12.60;99.90;;;;;;5018480;28;20231;-75
2020/12/22 10:11:31;;;;;;;3.37;1.40;;;12.50;99.90;;;;;;5020548;28;20841;-76
2020/12/22 10:14:01;;;;;;;5.00;1.73;;;12.60;99.90;;;;;;5029007;28;20231;-75
2020/12/22 10:16:27;;;;;;;3.63;1.83;;;12.60;99.90;;;;;;5007709;28;20279;-76
2020/12/22 10:18:54;;;;;;;5.07;1.80;;;12.60;99.90;;;;;;5011911;28;22075;-76
2020/12/22 10:21:21;;;;;;;6.20;1.80;;;12.60;99.90;;;;;;5022691;28;20197;-75
2020/12/22 10:23:49;;;;;;;4.63;1.97;;;12.60;99.90;;;;;;5024033;28;20279;-76
2020/12/22 10:26:17;;;;;;;4.30;2.47;;;12.70;99.90;;;;;;5008978;28;20244;-76
2020/12/22 10:28:45;;;;;;;4.67;2.50;;;12.70;99.90;;;;;;5024249;28;20630;-76
2020/12/22 10:31:18;;;;;;;6.53;2.60;;;12.70;99.90;;;;;;5017222;28;20300;-75
2020/12/22 10:33:46;;;;;;;3.17;1.60;;;12.70;99.90;;;;;;5013353;28;20196;-76
2020/12/22 10:36:14;;;;;;;3.27;1.40;;;12.80;99.90;;;;;;5028366;28;20587;-76
2020/12/22 10:38:53;;;;;;;4.23;1.87;;;12.60;99.90;;;;;;5016677;28;20622;-75
2020/12/22 10:41:20;;;;;;;6.13;1.80;;;12.60;99.90;;;;;;5021014;28;20211;-78
2020/12/22 10:43:48;;;;;;;7.97;2.03;;;12.50;99.90;;;;;;5029573;28;20583;-76
2020/12/22 10:46:14;;;;;;;2.23;1.83;;;12.40;99.90;;;;;;5025440;28;20546;-76
2020/12/22 10:48:42;;;;;;;9.70;2.10;;;12.50;99.90;;;;;;5033979;28;20244;-75
2020/12/22 10:51:09;;;;;;;5.77;2.00;;;12.50;99.90;;;;;;5012836;28;20200;-75
2020/12/22 10:53:35;;;;;;;5.40;2.20;;;12.60;99.90;;;;;;5028307;28;20280;-76
2020/12/22 10:56:02;;;;;;;6.23;2.10;;;12.50;99.90;;;;;;5011739;28;20265;-75
2020/12/22 10:58:30;;;;;;;2.07;1.83;;;12.50;99.90;;;;;;5009296;28;20607;-76
2020/12/22 11:00:56;;;;;;;2.60;1.87;;;12.50;99.90;;;;;;5017369;28;20201;-76
2020/12/22 11:03:22;;;;;;;4.90;2.17;;;12.50;99.90;;;;;;5031452;28;20196;-75
2020/12/22 11:08:38;;;;;;;4.60;1.67;;;12.50;99.90;;;;;;5015182;28;20212;-76
2020/12/22 11:11:06;;;;;;;4.33;1.77;;;12.50;99.90;;;;;;5019224;28;20218;-76
2020/12/22 11:13:32;;;;;;;4.90;2.00;;;12.60;99.90;;;;;;5011509;28;20659;-75
2020/12/22 11:15:58;;;;;;;5.10;2.00;;;12.50;99.90;;;;;;5029602;28;20601;-76
2020/12/22 11:18:25;;;;;;;6.80;1.77;;;12.50;99.90;;;;;;5019391;28;20238;-75
2020/12/22 11:20:51;;;;;;;4.90;2.10;;;12.50;99.90;;;;;;5027714;28;20620;-76
2020/12/22 11:23:17;;;;;;;6.93;1.83;;;12.50;99.90;;;;;;5024019;28;20247;-75
2020/12/22 11:25:44;;;;;;;2.73;1.87;;;12.40;99.90;;;;;;5010067;28;20688;-76
2020/12/22 11:28:11;;;;;;;3.60;2.13;;;12.40;99.90;;;;;;5019052;28;20213;-75
2020/12/22 11:30:37;;;;;;;5.40;2.20;;;12.40;99.90;;;;;;5021098;28;20224;-75
2020/12/22 11:33:04;;;;;;;8.13;1.90;;;12.50;99.90;;;;;;5026408;28;20188;-76
2020/12/22 11:35:32;;;;;;;3.23;1.43;;;12.50;99.90;;;;;;5037651;28;20204;-76
2020/12/22 11:37:58;;;;;;;7.00;1.67;;;12.30;99.90;;;;;;5010735;28;20587;-76
2020/12/22 11:40:25;;;;;;;3.00;1.43;;;12.30;99.90;;;;;;5024418;28;20232;-76
2020/12/22 11:42:51;;;;;;;7.20;2.10;;;12.20;99.90;;;;;;5027713;28;20204;-75
2020/12/22 11:45:18;;;;;;;4.90;1.40;;;12.20;99.90;;;;;;5027606;28;20201;-76
2020/12/22 11:47:44;;;;;;;6.37;1.40;;;12.20;99.90;;;;;;5007879;28;20228;-76
2020/12/22 11:50:11;;;;;;;4.87;1.40;;;12.20;99.90;;;;;;5016321;28;20201;-76
2020/12/22 11:52:37;;;;;;;8.30;1.67;;;12.20;99.90;;;;;;5021411;28;20209;-75
2020/12/22 11:55:04;;;;;;;2.67;1.37;;;12.20;99.90;;;;;;4999405;28;20709;-75
2020/12/22 11:57:31;;;;;;;6.53;1.57;;;12.10;99.90;;;;;;5037690;28;20294;-75
2020/12/22 11:59:57;;;;;;;4.17;1.10;;;12.10;99.90;;;;;;5034044;28;20296;-76
2020/12/22 12:02:23;;;;;;;3.33;1.00;;;12.10;99.90;;;;;;5021321;28;20250;-75
2020/12/22 12:04:50;;;;;;;7.73;1.40;;;12.10;99.90;;;;;;5014899;28;20208;-75
2020/12/22 12:07:16;;;;;;;6.60;1.60;;;12.20;99.90;;;;;;5008119;28;20230;-75
2020/12/22 12:09:43;;;;;;;8.90;1.90;;;12.20;99.90;;;;;;5016965;28;20216;-74
2020/12/22 12:12:11;;;;;;;7.73;1.50;;;12.20;99.90;;;;;;5022507;28;20207;-75
2020/12/22 12:14:37;;;;;;;5.83;1.67;;;12.20;99.90;;;;;;5027512;28;20219;-74
2020/12/22 12:17:04;;;;;;;4.37;2.00;;;12.20;99.90;;;;;;5020895;28;20699;-75
2020/12/22 12:19:32;;;;;;;1.40;1.20;;;12.10;99.90;;;;;;5050101;28;20603;-74
2020/12/22 12:22:00;;;;;;;3.37;1.63;;;12.00;99.90;;;;;;5007054;28;20739;-75
2020/12/22 12:24:26;;;;;;;5.90;1.73;;;12.00;99.90;;;;;;5017482;28;20221;-74
2020/12/22 12:26:52;;;;;;;3.20;1.53;;;11.90;99.90;;;;;;5021828;28;20255;-75
2020/12/22 12:29:19;;;;;;;3.47;1.30;;;11.80;99.90;;;;;;5002903;28;20214;-75
2020/12/22 12:31:49;;;;;;;2.57;1.93;;;11.80;99.90;;;;;;5022240;28;20205;-74
2020/12/22 12:34:16;;;;;;;4.53;2.23;;;11.80;99.90;;;;;;5050898;28;20212;-74
2020/12/22 12:36:43;;;;;;;3.43;2.50;;;11.80;99.90;;;;;;5020135;28;20215;-74
2020/12/22 12:39:10;;;;;;;4.60;2.37;;;11.80;99.90;;;;;;5006404;28;20546;-75
2020/12/22 12:41:37;;;;;;;3.50;3.00;;;11.90;99.90;;;;;;5021760;28;20580;-75
2020/12/22 12:44:03;;;;;;;3.50;2.60;;;11.90;99.90;;;;;;5030137;28;20214;-75
2020/12/22 12:46:30;;;;;;;5.80;2.80;;;11.90;99.90;;;;;;5017023;28;20223;-75
2020/12/22 12:48:56;;;;;;;6.73;3.07;;;11.80;99.90;;;;;;5006082;28;20290;-74
2020/12/22 12:51:23;;;;;;;9.37;3.30;;;11.80;99.90;;;;;;5011876;28;20207;-76
2020/12/22 12:53:49;;;;;;;4.47;2.77;;;11.90;99.90;;;;;;5007037;28;20612;-74
2020/12/22 12:56:16;;;;;;;6.53;2.70;;;11.90;99.90;;;;;;5018854;28;20222;-74
2020/12/22 12:58:43;;;;;;;7.63;2.60;;;11.90;99.90;;;;;;5022538;28;20260;-75
2020/12/22 13:01:11;;;;;;;5.87;2.90;;;11.80;99.90;;;;;;5016462;28;20248;-74
2020/12/22 13:03:40;;;;;;;3.23;2.53;;;11.70;99.90;;;;;;5029010;28;20191;-75